Parkers Prairie, Minnesota
Current Conditions -  °F | °C
As of 8:53 PM on Monday 20 Oct 2014 (Local Time) from KAXN Reporting Station
Clear Clear  
Wind Chill: 45°   Ceiling: Unl
Heat Index: 45°   Visibility: 10mi
Dew Point: 37°   Wind: 3mph
Humidity: 74%   Direction: 30°NNE
Pressure: 30.06"   Gusts: NA
Location:  46.15°N, 95.33°W
Report Text: KAXN 210153Z AUTO 03003KT 10SM CLR 07/03 A3006 RMK AO2 SLP188 T00720028
Loading
Personal Weather Stations






























Interactive Weather Map
Tropical Storm Tracking
New forecast layout! Learn more

10-Day Weather Forecast

Advertisements
Track Severe Weather on mobile